sensor_id;sensor_type;location;lat;lon;timestamp;P1;durP1;ratioP1;P2;durP2;ratioP2
72569;SDS011;60594;50.204;8.844;2023-06-19T00:00:14;9.38;;;7.68;;
72569;SDS011;60594;50.204;8.844;2023-06-19T00:03:04;8.13;;;7.13;;
72569;SDS011;60594;50.204;8.844;2023-06-19T00:05:30;10.55;;;7.47;;
72569;SDS011;60594;50.204;8.844;2023-06-19T00:07:57;8.27;;;6.47;;
72569;SDS011;60594;50.204;8.844;2023-06-19T00:10:23;10.10;;;7.20;;
72569;SDS011;60594;50.204;8.844;2023-06-19T00:12:50;10.80;;;7.25;;
72569;SDS011;60594;50.204;8.844;2023-06-19T00:15:16;9.30;;;7.32;;
72569;SDS011;60594;50.204;8.844;2023-06-19T00:17:43;8.15;;;6.82;;
72569;SDS011;60594;50.204;8.844;2023-06-19T00:20:09;8.90;;;5.78;;
72569;SDS011;60594;50.204;8.844;2023-06-19T00:22:36;8.52;;;7.15;;
72569;SDS011;60594;50.204;8.844;2023-06-19T00:25:02;8.75;;;7.00;;
72569;SDS011;60594;50.204;8.844;2023-06-19T00:27:29;8.85;;;7.72;;
72569;SDS011;60594;50.204;8.844;2023-06-19T00:29:56;8.68;;;6.80;;
72569;SDS011;60594;50.204;8.844;2023-06-19T00:32:28;8.32;;;6.30;;
72569;SDS011;60594;50.204;8.844;2023-06-19T00:34:56;7.70;;;6.25;;
72569;SDS011;60594;50.204;8.844;2023-06-19T00:37:25;9.25;;;6.60;;
72569;SDS011;60594;50.204;8.844;2023-06-19T00:39:53;7.80;;;6.40;;
72569;SDS011;60594;50.204;8.844;2023-06-19T00:42:20;9.07;;;6.38;;
72569;SDS011;60594;50.204;8.844;2023-06-19T00:44:46;8.68;;;6.88;;
72569;SDS011;60594;50.204;8.844;2023-06-19T00:47:13;8.70;;;6.25;;
72569;SDS011;60594;50.204;8.844;2023-06-19T00:49:40;8.60;;;6.60;;
72569;SDS011;60594;50.204;8.844;2023-06-19T00:52:06;8.13;;;6.90;;
72569;SDS011;60594;50.204;8.844;2023-06-19T00:54:33;12.25;;;7.55;;
72569;SDS011;60594;50.204;8.844;2023-06-19T00:57:00;10.35;;;7.57;;
72569;SDS011;60594;50.204;8.844;2023-06-19T00:59:27;8.50;;;6.90;;
72569;SDS011;60594;50.204;8.844;2023-06-19T01:04:22;8.70;;;6.82;;
72569;SDS011;60594;50.204;8.844;2023-06-19T01:06:56;9.02;;;6.88;;
72569;SDS011;60594;50.204;8.844;2023-06-19T01:09:28;8.50;;;7.22;;
72569;SDS011;60594;50.204;8.844;2023-06-19T01:12:01;9.02;;;7.05;;
72569;SDS011;60594;50.204;8.844;2023-06-19T01:14:53;8.27;;;5.50;;
72569;SDS011;60594;50.204;8.844;2023-06-19T01:17:24;11.18;;;6.80;;
72569;SDS011;60594;50.204;8.844;2023-06-19T01:19:54;9.65;;;7.25;;
72569;SDS011;60594;50.204;8.844;2023-06-19T01:24:58;9.13;;;7.35;;
72569;SDS011;60594;50.204;8.844;2023-06-19T01:27:25;9.18;;;7.43;;
72569;SDS011;60594;50.204;8.844;2023-06-19T01:29:56;8.88;;;6.80;;
72569;SDS011;60594;50.204;8.844;2023-06-19T01:35:15;10.07;;;7.60;;
72569;SDS011;60594;50.204;8.844;2023-06-19T01:37:45;8.75;;;7.25;;
72569;SDS011;60594;50.204;8.844;2023-06-19T01:40:15;8.35;;;6.70;;
72569;SDS011;60594;50.204;8.844;2023-06-19T01:42:43;10.43;;;7.10;;
72569;SDS011;60594;50.204;8.844;2023-06-19T01:45:10;9.38;;;6.65;;
72569;SDS011;60594;50.204;8.844;2023-06-19T01:47:36;9.20;;;7.28;;
72569;SDS011;60594;50.204;8.844;2023-06-19T01:50:03;8.90;;;6.72;;
72569;SDS011;60594;50.204;8.844;2023-06-19T01:52:30;8.63;;;7.22;;
72569;SDS011;60594;50.204;8.844;2023-06-19T01:54:57;8.45;;;6.60;;
72569;SDS011;60594;50.204;8.844;2023-06-19T01:57:23;9.40;;;6.38;;
72569;SDS011;60594;50.204;8.844;2023-06-19T01:59:50;9.52;;;7.32;;
72569;SDS011;60594;50.204;8.844;2023-06-19T02:02:16;9.43;;;7.18;;
72569;SDS011;60594;50.204;8.844;2023-06-19T02:04:43;10.02;;;7.68;;
72569;SDS011;60594;50.204;8.844;2023-06-19T02:07:10;9.10;;;7.53;;
72569;SDS011;60594;50.204;8.844;2023-06-19T02:09:37;9.88;;;7.47;;
72569;SDS011;60594;50.204;8.844;2023-06-19T02:12:04;11.68;;;7.82;;
72569;SDS011;60594;50.204;8.844;2023-06-19T02:14:31;10.30;;;7.63;;
72569;SDS011;60594;50.204;8.844;2023-06-19T02:16:57;10.27;;;7.80;;
72569;SDS011;60594;50.204;8.844;2023-06-19T02:19:23;11.43;;;8.02;;
72569;SDS011;60594;50.204;8.844;2023-06-19T02:21:50;9.52;;;7.45;;
72569;SDS011;60594;50.204;8.844;2023-06-19T02:24:17;9.52;;;7.85;;
72569;SDS011;60594;50.204;8.844;2023-06-19T02:26:43;10.25;;;8.40;;
72569;SDS011;60594;50.204;8.844;2023-06-19T02:29:10;11.20;;;8.20;;
72569;SDS011;60594;50.204;8.844;2023-06-19T02:31:36;11.90;;;8.02;;
72569;SDS011;60594;50.204;8.844;2023-06-19T02:34:05;10.05;;;8.45;;
72569;SDS011;60594;50.204;8.844;2023-06-19T02:36:31;11.15;;;8.20;;
72569;SDS011;60594;50.204;8.844;2023-06-19T02:38:58;11.55;;;8.50;;
72569;SDS011;60594;50.204;8.844;2023-06-19T02:41:26;13.93;;;9.15;;
72569;SDS011;60594;50.204;8.844;2023-06-19T02:43:53;11.55;;;8.65;;
72569;SDS011;60594;50.204;8.844;2023-06-19T02:46:20;10.68;;;8.80;;
72569;SDS011;60594;50.204;8.844;2023-06-19T02:48:46;11.85;;;8.95;;
72569;SDS011;60594;50.204;8.844;2023-06-19T02:51:12;11.07;;;8.80;;
72569;SDS011;60594;50.204;8.844;2023-06-19T02:53:39;12.43;;;9.45;;
72569;SDS011;60594;50.204;8.844;2023-06-19T02:56:09;11.52;;;9.15;;
72569;SDS011;60594;50.204;8.844;2023-06-19T02:58:37;10.68;;;8.73;;
72569;SDS011;60594;50.204;8.844;2023-06-19T03:01:05;11.07;;;8.85;;
72569;SDS011;60594;50.204;8.844;2023-06-19T03:03:34;14.02;;;9.30;;
72569;SDS011;60594;50.204;8.844;2023-06-19T03:06:06;12.63;;;9.88;;
72569;SDS011;60594;50.204;8.844;2023-06-19T03:08:34;12.00;;;9.55;;
72569;SDS011;60594;50.204;8.844;2023-06-19T03:11:01;11.20;;;8.65;;
72569;SDS011;60594;50.204;8.844;2023-06-19T03:13:50;10.57;;;9.23;;
72569;SDS011;60594;50.204;8.844;2023-06-19T03:16:19;11.80;;;9.35;;
72569;SDS011;60594;50.204;8.844;2023-06-19T03:18:47;11.68;;;9.25;;
72569;SDS011;60594;50.204;8.844;2023-06-19T03:21:16;12.30;;;9.05;;
72569;SDS011;60594;50.204;8.844;2023-06-19T03:23:46;12.10;;;8.90;;
72569;SDS011;60594;50.204;8.844;2023-06-19T03:26:12;11.88;;;8.73;;
72569;SDS011;60594;50.204;8.844;2023-06-19T03:28:41;12.20;;;9.68;;
72569;SDS011;60594;50.204;8.844;2023-06-19T03:31:09;10.65;;;8.68;;
72569;SDS011;60594;50.204;8.844;2023-06-19T03:33:36;13.68;;;9.73;;
72569;SDS011;60594;50.204;8.844;2023-06-19T03:36:03;12.10;;;8.80;;
72569;SDS011;60594;50.204;8.844;2023-06-19T03:38:48;10.70;;;8.35;;
72569;SDS011;60594;50.204;8.844;2023-06-19T03:41:18;13.45;;;9.20;;
72569;SDS011;60594;50.204;8.844;2023-06-19T03:43:45;9.57;;;8.57;;
72569;SDS011;60594;50.204;8.844;2023-06-19T03:46:12;13.10;;;8.70;;
72569;SDS011;60594;50.204;8.844;2023-06-19T03:48:39;10.25;;;7.80;;
72569;SDS011;60594;50.204;8.844;2023-06-19T03:51:05;10.38;;;8.57;;
72569;SDS011;60594;50.204;8.844;2023-06-19T03:53:32;10.07;;;7.97;;
72569;SDS011;60594;50.204;8.844;2023-06-19T03:55:59;10.48;;;8.07;;
72569;SDS011;60594;50.204;8.844;2023-06-19T03:58:26;9.90;;;7.57;;
72569;SDS011;60594;50.204;8.844;2023-06-19T04:00:52;8.63;;;6.82;;
72569;SDS011;60594;50.204;8.844;2023-06-19T04:03:19;8.73;;;6.97;;
72569;SDS011;60594;50.204;8.844;2023-06-19T04:05:45;6.90;;;5.45;;
72569;SDS011;60594;50.204;8.844;2023-06-19T04:08:12;9.27;;;6.32;;
72569;SDS011;60594;50.204;8.844;2023-06-19T04:10:43;8.70;;;6.18;;
72569;SDS011;60594;50.204;8.844;2023-06-19T04:13:11;7.93;;;5.78;;
72569;SDS011;60594;50.204;8.844;2023-06-19T04:15:38;7.50;;;5.55;;
72569;SDS011;60594;50.204;8.844;2023-06-19T04:18:04;8.93;;;6.00;;
72569;SDS011;60594;50.204;8.844;2023-06-19T04:20:31;9.18;;;5.72;;
72569;SDS011;60594;50.204;8.844;2023-06-19T04:22:58;7.63;;;5.70;;
72569;SDS011;60594;50.204;8.844;2023-06-19T04:25:24;7.40;;;5.85;;
72569;SDS011;60594;50.204;8.844;2023-06-19T04:27:52;10.13;;;6.13;;
72569;SDS011;60594;50.204;8.844;2023-06-19T04:30:18;7.35;;;5.97;;
72569;SDS011;60594;50.204;8.844;2023-06-19T04:32:47;7.97;;;6.45;;
72569;SDS011;60594;50.204;8.844;2023-06-19T04:35:13;8.98;;;6.80;;
72569;SDS011;60594;50.204;8.844;2023-06-19T04:37:40;8.07;;;6.40;;
72569;SDS011;60594;50.204;8.844;2023-06-19T04:40:06;9.18;;;6.50;;
72569;SDS011;60594;50.204;8.844;2023-06-19T04:42:34;8.88;;;6.50;;
72569;SDS011;60594;50.204;8.844;2023-06-19T04:45:00;12.23;;;7.10;;
72569;SDS011;60594;50.204;8.844;2023-06-19T04:47:27;8.80;;;6.35;;
72569;SDS011;60594;50.204;8.844;2023-06-19T04:49:53;10.00;;;5.78;;
72569;SDS011;60594;50.204;8.844;2023-06-19T04:52:20;8.43;;;6.07;;
72569;SDS011;60594;50.204;8.844;2023-06-19T04:54:46;7.45;;;5.05;;
72569;SDS011;60594;50.204;8.844;2023-06-19T04:57:14;7.72;;;6.03;;
72569;SDS011;60594;50.204;8.844;2023-06-19T04:59:42;7.90;;;6.18;;
72569;SDS011;60594;50.204;8.844;2023-06-19T05:02:10;9.07;;;6.07;;
72569;SDS011;60594;50.204;8.844;2023-06-19T05:04:37;8.38;;;6.03;;
72569;SDS011;60594;50.204;8.844;2023-06-19T05:07:04;7.70;;;5.95;;
72569;SDS011;60594;50.204;8.844;2023-06-19T05:09:30;7.38;;;5.75;;
72569;SDS011;60594;50.204;8.844;2023-06-19T05:11:57;7.82;;;5.93;;
72569;SDS011;60594;50.204;8.844;2023-06-19T05:14:23;8.05;;;5.40;;
72569;SDS011;60594;50.204;8.844;2023-06-19T05:16:50;8.50;;;5.65;;
72569;SDS011;60594;50.204;8.844;2023-06-19T05:19:16;7.95;;;5.50;;
72569;SDS011;60594;50.204;8.844;2023-06-19T05:21:43;7.97;;;5.65;;
72569;SDS011;60594;50.204;8.844;2023-06-19T05:24:10;11.05;;;5.32;;
72569;SDS011;60594;50.204;8.844;2023-06-19T05:26:36;6.85;;;5.40;;
72569;SDS011;60594;50.204;8.844;2023-06-19T05:29:03;7.95;;;5.10;;
72569;SDS011;60594;50.204;8.844;2023-06-19T05:31:29;7.03;;;5.18;;
72569;SDS011;60594;50.204;8.844;2023-06-19T05:33:55;7.95;;;5.25;;
72569;SDS011;60594;50.204;8.844;2023-06-19T05:36:22;8.07;;;5.20;;
72569;SDS011;60594;50.204;8.844;2023-06-19T05:38:49;7.90;;;5.10;;
72569;SDS011;60594;50.204;8.844;2023-06-19T05:41:16;7.10;;;5.47;;
72569;SDS011;60594;50.204;8.844;2023-06-19T05:43:42;6.80;;;5.15;;
72569;SDS011;60594;50.204;8.844;2023-06-19T05:46:10;7.07;;;4.75;;
72569;SDS011;60594;50.204;8.844;2023-06-19T05:48:37;6.15;;;4.40;;
72569;SDS011;60594;50.204;8.844;2023-06-19T05:51:04;8.20;;;4.78;;
72569;SDS011;60594;50.204;8.844;2023-06-19T05:53:30;6.57;;;4.57;;
72569;SDS011;60594;50.204;8.844;2023-06-19T05:55:58;7.20;;;4.60;;
72569;SDS011;60594;50.204;8.844;2023-06-19T05:58:24;8.52;;;4.97;;
72569;SDS011;60594;50.204;8.844;2023-06-19T06:00:51;8.25;;;4.65;;
72569;SDS011;60594;50.204;8.844;2023-06-19T06:03:26;6.40;;;4.35;;
72569;SDS011;60594;50.204;8.844;2023-06-19T06:05:54;7.55;;;4.50;;
72569;SDS011;60594;50.204;8.844;2023-06-19T06:08:20;7.38;;;4.82;;
72569;SDS011;60594;50.204;8.844;2023-06-19T06:10:47;6.57;;;4.47;;
72569;SDS011;60594;50.204;8.844;2023-06-19T06:13:13;7.97;;;4.32;;
72569;SDS011;60594;50.204;8.844;2023-06-19T06:15:40;8.63;;;5.50;;
72569;SDS011;60594;50.204;8.844;2023-06-19T06:18:06;6.97;;;4.97;;
72569;SDS011;60594;50.204;8.844;2023-06-19T06:20:33;6.10;;;4.38;;
72569;SDS011;60594;50.204;8.844;2023-06-19T06:22:59;8.00;;;4.57;;
72569;SDS011;60594;50.204;8.844;2023-06-19T06:25:26;7.25;;;4.20;;
72569;SDS011;60594;50.204;8.844;2023-06-19T06:27:52;6.72;;;4.55;;
72569;SDS011;60594;50.204;8.844;2023-06-19T06:30:19;6.05;;;4.45;;
72569;SDS011;60594;50.204;8.844;2023-06-19T06:32:45;5.65;;;4.07;;
72569;SDS011;60594;50.204;8.844;2023-06-19T06:35:12;6.97;;;4.18;;
72569;SDS011;60594;50.204;8.844;2023-06-19T06:37:38;7.18;;;4.85;;
72569;SDS011;60594;50.204;8.844;2023-06-19T06:40:06;5.75;;;4.47;;
72569;SDS011;60594;50.204;8.844;2023-06-19T06:42:37;6.25;;;4.68;;
72569;SDS011;60594;50.204;8.844;2023-06-19T06:45:05;6.75;;;4.10;;
72569;SDS011;60594;50.204;8.844;2023-06-19T06:47:34;6.70;;;4.22;;
72569;SDS011;60594;50.204;8.844;2023-06-19T06:50:01;6.65;;;4.07;;
72569;SDS011;60594;50.204;8.844;2023-06-19T06:52:27;6.78;;;4.65;;
72569;SDS011;60594;50.204;8.844;2023-06-19T06:54:54;5.63;;;3.95;;
72569;SDS011;60594;50.204;8.844;2023-06-19T06:57:20;5.97;;;4.00;;
72569;SDS011;60594;50.204;8.844;2023-06-19T06:59:47;7.43;;;4.30;;
72569;SDS011;60594;50.204;8.844;2023-06-19T07:02:13;6.53;;;4.50;;
72569;SDS011;60594;50.204;8.844;2023-06-19T07:04:40;6.63;;;4.20;;
72569;SDS011;60594;50.204;8.844;2023-06-19T07:07:06;6.47;;;4.13;;
72569;SDS011;60594;50.204;8.844;2023-06-19T07:09:35;6.72;;;4.30;;
72569;SDS011;60594;50.204;8.844;2023-06-19T07:12:01;7.22;;;4.60;;
72569;SDS011;60594;50.204;8.844;2023-06-19T07:14:30;6.43;;;4.15;;
72569;SDS011;60594;50.204;8.844;2023-06-19T07:16:57;6.05;;;3.90;;
72569;SDS011;60594;50.204;8.844;2023-06-19T07:19:23;6.32;;;4.05;;
72569;SDS011;60594;50.204;8.844;2023-06-19T07:21:50;5.70;;;3.75;;
72569;SDS011;60594;50.204;8.844;2023-06-19T07:24:17;6.93;;;3.38;;
72569;SDS011;60594;50.204;8.844;2023-06-19T07:26:45;7.45;;;3.72;;
72569;SDS011;60594;50.204;8.844;2023-06-19T07:29:13;5.35;;;3.35;;
72569;SDS011;60594;50.204;8.844;2023-06-19T07:31:39;6.60;;;4.20;;
72569;SDS011;60594;50.204;8.844;2023-06-19T07:34:08;5.18;;;3.33;;
72569;SDS011;60594;50.204;8.844;2023-06-19T07:36:35;5.40;;;3.60;;
72569;SDS011;60594;50.204;8.844;2023-06-19T07:39:02;6.13;;;3.88;;
72569;SDS011;60594;50.204;8.844;2023-06-19T07:41:28;6.68;;;4.13;;
72569;SDS011;60594;50.204;8.844;2023-06-19T07:43:55;5.70;;;4.10;;
72569;SDS011;60594;50.204;8.844;2023-06-19T07:46:21;7.82;;;4.30;;
72569;SDS011;60594;50.204;8.844;2023-06-19T07:48:48;5.38;;;3.70;;
72569;SDS011;60594;50.204;8.844;2023-06-19T07:51:14;7.28;;;3.47;;
72569;SDS011;60594;50.204;8.844;2023-06-19T07:53:41;5.85;;;3.30;;
72569;SDS011;60594;50.204;8.844;2023-06-19T07:58:35;5.07;;;3.35;;
72569;SDS011;60594;50.204;8.844;2023-06-19T08:01:02;5.22;;;3.35;;
72569;SDS011;60594;50.204;8.844;2023-06-19T08:03:28;5.72;;;3.50;;
72569;SDS011;60594;50.204;8.844;2023-06-19T08:05:56;6.70;;;3.78;;
72569;SDS011;60594;50.204;8.844;2023-06-19T08:08:22;6.28;;;3.75;;
72569;SDS011;60594;50.204;8.844;2023-06-19T08:10:49;5.45;;;3.30;;
72569;SDS011;60594;50.204;8.844;2023-06-19T08:13:15;5.55;;;3.90;;
72569;SDS011;60594;50.204;8.844;2023-06-19T08:15:42;6.28;;;3.60;;
72569;SDS011;60594;50.204;8.844;2023-06-19T08:18:10;5.85;;;3.63;;
72569;SDS011;60594;50.204;8.844;2023-06-19T08:20:37;5.90;;;3.75;;
72569;SDS011;60594;50.204;8.844;2023-06-19T08:23:04;6.97;;;3.90;;
72569;SDS011;60594;50.204;8.844;2023-06-19T08:25:30;4.88;;;3.25;;
72569;SDS011;60594;50.204;8.844;2023-06-19T08:27:57;5.78;;;3.30;;
72569;SDS011;60594;50.204;8.844;2023-06-19T08:30:23;5.10;;;3.30;;
72569;SDS011;60594;50.204;8.844;2023-06-19T08:32:50;6.53;;;3.40;;
72569;SDS011;60594;50.204;8.844;2023-06-19T08:35:16;6.72;;;3.97;;
72569;SDS011;60594;50.204;8.844;2023-06-19T08:37:43;5.45;;;3.58;;
72569;SDS011;60594;50.204;8.844;2023-06-19T08:40:11;5.50;;;3.75;;
72569;SDS011;60594;50.204;8.844;2023-06-19T08:42:38;6.07;;;3.85;;
72569;SDS011;60594;50.204;8.844;2023-06-19T08:45:06;5.38;;;3.60;;
72569;SDS011;60594;50.204;8.844;2023-06-19T08:47:36;6.35;;;3.78;;
72569;SDS011;60594;50.204;8.844;2023-06-19T08:50:02;5.95;;;3.88;;
72569;SDS011;60594;50.204;8.844;2023-06-19T08:52:30;5.43;;;3.63;;
72569;SDS011;60594;50.204;8.844;2023-06-19T08:54:56;5.70;;;3.60;;
72569;SDS011;60594;50.204;8.844;2023-06-19T08:57:32;5.43;;;3.33;;
72569;SDS011;60594;50.204;8.844;2023-06-19T09:00:03;5.78;;;3.70;;
72569;SDS011;60594;50.204;8.844;2023-06-19T09:02:45;7.50;;;3.90;;
72569;SDS011;60594;50.204;8.844;2023-06-19T09:05:16;5.57;;;3.53;;
72569;SDS011;60594;50.204;8.844;2023-06-19T09:07:44;6.15;;;3.80;;
72569;SDS011;60594;50.204;8.844;2023-06-19T09:10:20;6.47;;;4.53;;
72569;SDS011;60594;50.204;8.844;2023-06-19T09:12:57;6.40;;;4.10;;
72569;SDS011;60594;50.204;8.844;2023-06-19T09:15:30;6.93;;;4.18;;
72569;SDS011;60594;50.204;8.844;2023-06-19T09:18:00;6.72;;;4.05;;
72569;SDS011;60594;50.204;8.844;2023-06-19T09:20:28;6.55;;;4.07;;
72569;SDS011;60594;50.204;8.844;2023-06-19T09:22:56;6.32;;;3.83;;
72569;SDS011;60594;50.204;8.844;2023-06-19T09:25:23;5.72;;;4.00;;
72569;SDS011;60594;50.204;8.844;2023-06-19T09:27:53;7.80;;;3.80;;
72569;SDS011;60594;50.204;8.844;2023-06-19T09:30:21;5.85;;;3.58;;
72569;SDS011;60594;50.204;8.844;2023-06-19T09:32:48;5.38;;;3.33;;
72569;SDS011;60594;50.204;8.844;2023-06-19T09:35:15;6.30;;;4.03;;
72569;SDS011;60594;50.204;8.844;2023-06-19T09:37:42;6.50;;;4.30;;
72569;SDS011;60594;50.204;8.844;2023-06-19T09:40:11;8.07;;;4.30;;
72569;SDS011;60594;50.204;8.844;2023-06-19T09:42:38;6.07;;;4.05;;
72569;SDS011;60594;50.204;8.844;2023-06-19T09:45:10;5.53;;;3.72;;
72569;SDS011;60594;50.204;8.844;2023-06-19T09:47:39;6.45;;;3.75;;
72569;SDS011;60594;50.204;8.844;2023-06-19T09:50:10;6.07;;;3.83;;
72569;SDS011;60594;50.204;8.844;2023-06-19T09:52:39;5.60;;;4.03;;
72569;SDS011;60594;50.204;8.844;2023-06-19T09:55:09;8.15;;;4.63;;
72569;SDS011;60594;50.204;8.844;2023-06-19T09:57:39;5.80;;;4.03;;
72569;SDS011;60594;50.204;8.844;2023-06-19T10:00:08;5.88;;;3.80;;
72569;SDS011;60594;50.204;8.844;2023-06-19T10:05:09;7.68;;;4.50;;
72569;SDS011;60594;50.204;8.844;2023-06-19T10:07:40;5.93;;;4.13;;
72569;SDS011;60594;50.204;8.844;2023-06-19T10:10:09;8.23;;;4.00;;
72569;SDS011;60594;50.204;8.844;2023-06-19T10:12:45;5.80;;;4.03;;
72569;SDS011;60594;50.204;8.844;2023-06-19T10:17:53;5.95;;;4.00;;
72569;SDS011;60594;50.204;8.844;2023-06-19T10:20:33;6.00;;;4.00;;
72569;SDS011;60594;50.204;8.844;2023-06-19T10:23:14;8.15;;;4.20;;
72569;SDS011;60594;50.204;8.844;2023-06-19T10:26:02;6.22;;;4.40;;
72569;SDS011;60594;50.204;8.844;2023-06-19T10:28:30;5.82;;;3.80;;
72569;SDS011;60594;50.204;8.844;2023-06-19T10:30:58;6.75;;;4.22;;
72569;SDS011;60594;50.204;8.844;2023-06-19T10:33:26;6.45;;;4.22;;
72569;SDS011;60594;50.204;8.844;2023-06-19T10:35:54;7.13;;;4.45;;
72569;SDS011;60594;50.204;8.844;2023-06-19T10:38:22;6.18;;;3.90;;
72569;SDS011;60594;50.204;8.844;2023-06-19T10:40:48;5.97;;;3.80;;
72569;SDS011;60594;50.204;8.844;2023-06-19T10:43:21;5.40;;;3.70;;
72569;SDS011;60594;50.204;8.844;2023-06-19T10:45:51;6.95;;;3.95;;
72569;SDS011;60594;50.204;8.844;2023-06-19T10:48:22;6.20;;;3.88;;
72569;SDS011;60594;50.204;8.844;2023-06-19T10:50:50;6.35;;;4.10;;
72569;SDS011;60594;50.204;8.844;2023-06-19T10:53:27;6.55;;;3.58;;
72569;SDS011;60594;50.204;8.844;2023-06-19T10:55:56;5.15;;;3.67;;
72569;SDS011;60594;50.204;8.844;2023-06-19T10:58:23;6.60;;;3.50;;
72569;SDS011;60594;50.204;8.844;2023-06-19T11:00:50;5.50;;;3.70;;
72569;SDS011;60594;50.204;8.844;2023-06-19T11:03:18;5.45;;;3.53;;
72569;SDS011;60594;50.204;8.844;2023-06-19T11:05:45;5.60;;;3.80;;
72569;SDS011;60594;50.204;8.844;2023-06-19T11:08:20;5.88;;;3.80;;
72569;SDS011;60594;50.204;8.844;2023-06-19T11:10:50;7.57;;;4.03;;
72569;SDS011;60594;50.204;8.844;2023-06-19T11:13:17;6.07;;;3.95;;
72569;SDS011;60594;50.204;8.844;2023-06-19T11:15:45;5.82;;;3.90;;
72569;SDS011;60594;50.204;8.844;2023-06-19T11:18:16;6.45;;;4.40;;
72569;SDS011;60594;50.204;8.844;2023-06-19T11:20:50;6.47;;;4.30;;
72569;SDS011;60594;50.204;8.844;2023-06-19T11:23:25;7.88;;;3.80;;
72569;SDS011;60594;50.204;8.844;2023-06-19T11:25:53;6.22;;;3.83;;
72569;SDS011;60594;50.204;8.844;2023-06-19T11:28:19;5.78;;;3.67;;
72569;SDS011;60594;50.204;8.844;2023-06-19T11:30:49;6.30;;;4.00;;
72569;SDS011;60594;50.204;8.844;2023-06-19T11:33:23;6.28;;;4.10;;
72569;SDS011;60594;50.204;8.844;2023-06-19T11:35:50;5.38;;;3.80;;
72569;SDS011;60594;50.204;8.844;2023-06-19T11:38:22;6.03;;;4.35;;
72569;SDS011;60594;50.204;8.844;2023-06-19T11:40:50;5.38;;;4.10;;
72569;SDS011;60594;50.204;8.844;2023-06-19T11:43:27;7.25;;;4.30;;
72569;SDS011;60594;50.204;8.844;2023-06-19T11:46:01;6.13;;;4.28;;
72569;SDS011;60594;50.204;8.844;2023-06-19T11:48:32;6.30;;;4.10;;
72569;SDS011;60594;50.204;8.844;2023-06-19T11:51:00;6.35;;;4.32;;
72569;SDS011;60594;50.204;8.844;2023-06-19T11:53:26;5.45;;;4.20;;
72569;SDS011;60594;50.204;8.844;2023-06-19T11:55:53;7.03;;;3.88;;
72569;SDS011;60594;50.204;8.844;2023-06-19T11:58:19;6.35;;;4.28;;
72569;SDS011;60594;50.204;8.844;2023-06-19T12:00:47;5.40;;;4.07;;
72569;SDS011;60594;50.204;8.844;2023-06-19T12:03:14;5.45;;;3.95;;
72569;SDS011;60594;50.204;8.844;2023-06-19T12:05:41;6.03;;;4.63;;
72569;SDS011;60594;50.204;8.844;2023-06-19T12:08:07;5.65;;;3.95;;
72569;SDS011;60594;50.204;8.844;2023-06-19T12:10:34;7.20;;;4.63;;
72569;SDS011;60594;50.204;8.844;2023-06-19T12:13:01;6.07;;;4.15;;
72569;SDS011;60594;50.204;8.844;2023-06-19T12:15:27;7.38;;;4.10;;
72569;SDS011;60594;50.204;8.844;2023-06-19T12:17:54;6.47;;;3.88;;
72569;SDS011;60594;50.204;8.844;2023-06-19T12:20:24;6.20;;;4.05;;
72569;SDS011;60594;50.204;8.844;2023-06-19T12:22:51;5.32;;;3.70;;
72569;SDS011;60594;50.204;8.844;2023-06-19T12:25:17;5.28;;;4.00;;
72569;SDS011;60594;50.204;8.844;2023-06-19T12:27:44;5.25;;;3.78;;
72569;SDS011;60594;50.204;8.844;2023-06-19T12:30:11;5.60;;;4.22;;
72569;SDS011;60594;50.204;8.844;2023-06-19T12:32:38;6.25;;;4.43;;
72569;SDS011;60594;50.204;8.844;2023-06-19T12:35:04;6.07;;;4.20;;
72569;SDS011;60594;50.204;8.844;2023-06-19T12:37:33;6.20;;;4.32;;
72569;SDS011;60594;50.204;8.844;2023-06-19T12:39:59;6.00;;;4.18;;
72569;SDS011;60594;50.204;8.844;2023-06-19T12:42:26;7.20;;;4.35;;
72569;SDS011;60594;50.204;8.844;2023-06-19T12:44:53;6.22;;;4.10;;
72569;SDS011;60594;50.204;8.844;2023-06-19T12:47:19;5.60;;;3.83;;
72569;SDS011;60594;50.204;8.844;2023-06-19T12:49:46;6.82;;;4.35;;
72569;SDS011;60594;50.204;8.844;2023-06-19T12:52:13;6.40;;;4.20;;
72569;SDS011;60594;50.204;8.844;2023-06-19T12:54:39;5.75;;;4.10;;
72569;SDS011;60594;50.204;8.844;2023-06-19T12:57:08;6.47;;;3.78;;
72569;SDS011;60594;50.204;8.844;2023-06-19T12:59:34;5.70;;;4.28;;
72569;SDS011;60594;50.204;8.844;2023-06-19T13:02:01;6.03;;;3.58;;
72569;SDS011;60594;50.204;8.844;2023-06-19T13:04:28;6.15;;;3.80;;
72569;SDS011;60594;50.204;8.844;2023-06-19T13:06:54;5.68;;;4.10;;
72569;SDS011;60594;50.204;8.844;2023-06-19T13:09:21;7.15;;;4.40;;
72569;SDS011;60594;50.204;8.844;2023-06-19T13:11:48;6.68;;;4.28;;
72569;SDS011;60594;50.204;8.844;2023-06-19T13:14:15;5.60;;;3.85;;
72569;SDS011;60594;50.204;8.844;2023-06-19T13:16:42;6.28;;;4.03;;
72569;SDS011;60594;50.204;8.844;2023-06-19T13:19:08;4.82;;;3.60;;
72569;SDS011;60594;50.204;8.844;2023-06-19T13:21:35;5.70;;;3.90;;
72569;SDS011;60594;50.204;8.844;2023-06-19T13:24:02;5.80;;;4.15;;
72569;SDS011;60594;50.204;8.844;2023-06-19T13:26:29;6.15;;;4.25;;
72569;SDS011;60594;50.204;8.844;2023-06-19T13:28:55;6.32;;;4.43;;
72569;SDS011;60594;50.204;8.844;2023-06-19T13:31:25;5.63;;;4.40;;
72569;SDS011;60594;50.204;8.844;2023-06-19T13:33:51;5.40;;;4.00;;
72569;SDS011;60594;50.204;8.844;2023-06-19T13:36:18;5.93;;;4.15;;
72569;SDS011;60594;50.204;8.844;2023-06-19T13:38:45;5.57;;;4.32;;
72569;SDS011;60594;50.204;8.844;2023-06-19T13:41:13;5.30;;;3.88;;
72569;SDS011;60594;50.204;8.844;2023-06-19T13:43:39;5.72;;;4.45;;
72569;SDS011;60594;50.204;8.844;2023-06-19T13:46:06;6.10;;;4.32;;
72569;SDS011;60594;50.204;8.844;2023-06-19T13:48:33;5.07;;;4.10;;
72569;SDS011;60594;50.204;8.844;2023-06-19T13:51:00;7.18;;;4.30;;
72569;SDS011;60594;50.204;8.844;2023-06-19T13:53:27;5.90;;;3.88;;
72569;SDS011;60594;50.204;8.844;2023-06-19T13:55:56;6.07;;;3.70;;
72569;SDS011;60594;50.204;8.844;2023-06-19T13:58:22;5.30;;;4.00;;
72569;SDS011;60594;50.204;8.844;2023-06-19T14:00:50;6.00;;;3.95;;
72569;SDS011;60594;50.204;8.844;2023-06-19T14:03:17;5.82;;;4.18;;
72569;SDS011;60594;50.204;8.844;2023-06-19T14:05:43;5.50;;;4.22;;
72569;SDS011;60594;50.204;8.844;2023-06-19T14:08:10;8.40;;;4.18;;
72569;SDS011;60594;50.204;8.844;2023-06-19T14:10:36;6.13;;;4.40;;
72569;SDS011;60594;50.204;8.844;2023-06-19T14:13:03;5.68;;;3.60;;
72569;SDS011;60594;50.204;8.844;2023-06-19T14:15:29;5.53;;;4.40;;
72569;SDS011;60594;50.204;8.844;2023-06-19T14:17:56;5.45;;;3.90;;
72569;SDS011;60594;50.204;8.844;2023-06-19T14:20:22;4.97;;;4.07;;
72569;SDS011;60594;50.204;8.844;2023-06-19T14:22:49;5.22;;;3.85;;
72569;SDS011;60594;50.204;8.844;2023-06-19T14:25:15;6.00;;;3.50;;
72569;SDS011;60594;50.204;8.844;2023-06-19T14:27:42;5.40;;;3.53;;
72569;SDS011;60594;50.204;8.844;2023-06-19T14:30:08;5.35;;;3.55;;
72569;SDS011;60594;50.204;8.844;2023-06-19T14:35:03;4.82;;;3.70;;
72569;SDS011;60594;50.204;8.844;2023-06-19T14:37:30;4.93;;;3.70;;
72569;SDS011;60594;50.204;8.844;2023-06-19T14:39:57;5.07;;;3.20;;
72569;SDS011;60594;50.204;8.844;2023-06-19T14:42:23;4.68;;;3.42;;
72569;SDS011;60594;50.204;8.844;2023-06-19T14:44:50;5.60;;;3.60;;
72569;SDS011;60594;50.204;8.844;2023-06-19T14:47:17;5.60;;;3.33;;
72569;SDS011;60594;50.204;8.844;2023-06-19T14:49:43;5.20;;;3.38;;
72569;SDS011;60594;50.204;8.844;2023-06-19T14:52:10;4.90;;;3.45;;
72569;SDS011;60594;50.204;8.844;2023-06-19T14:54:36;4.75;;;3.50;;
72569;SDS011;60594;50.204;8.844;2023-06-19T14:57:03;5.72;;;2.92;;
72569;SDS011;60594;50.204;8.844;2023-06-19T14:59:30;5.18;;;3.85;;
72569;SDS011;60594;50.204;8.844;2023-06-19T15:01:57;4.43;;;3.03;;
72569;SDS011;60594;50.204;8.844;2023-06-19T15:04:23;6.38;;;3.03;;
72569;SDS011;60594;50.204;8.844;2023-06-19T15:06:50;5.05;;;3.03;;